createdAt,value
2023-01-31T00:13:55.372Z,36
2023-01-31T00:30:15.199Z,25
2023-01-31T00:45:26.169Z,25
2023-01-31T01:00:39.586Z,21
2023-01-31T01:15:47.874Z,48
2023-01-31T01:31:00.252Z,25
2023-01-31T01:46:14.266Z,1
2023-01-31T02:01:26.690Z,27
2023-01-31T02:16:40.330Z,43
2023-01-31T02:31:47.920Z,23
2023-01-31T02:47:01.364Z,26
2023-01-31T03:02:09.897Z,27
2023-01-31T03:17:23.980Z,43
2023-01-31T03:32:35.293Z,26
2023-01-31T03:47:46.597Z,24
2023-01-31T04:02:54.234Z,7
2023-01-31T04:18:07.400Z,20
2023-01-31T04:33:19.681Z,30
2023-01-31T04:48:29.271Z,44
2023-01-31T05:03:41.625Z,27
2023-01-31T05:18:53.166Z,30
2023-01-31T05:34:07.333Z,44
2023-01-31T05:49:21.424Z,33
2023-01-31T06:04:31.846Z,46
2023-01-31T06:19:42.636Z,46
2023-01-31T06:34:55.982Z,0
2023-01-31T06:50:06.239Z,27
2023-01-31T07:05:12.805Z,44
2023-01-31T07:20:26.800Z,24
2023-01-31T07:35:34.362Z,2
2023-01-31T07:50:44.061Z,37
2023-01-31T08:05:55.629Z,4
2023-01-31T08:21:01.878Z,5
2023-01-31T08:36:16.450Z,5
2023-01-31T08:51:24.035Z,6
2023-01-31T09:06:31.719Z,6
2023-01-31T09:21:38.735Z,6
2023-01-31T09:36:46.813Z,6
2023-01-31T09:51:56.671Z,6
2023-01-31T10:07:06.637Z,5
2023-01-31T10:22:19.917Z,6
2023-01-31T10:37:27.406Z,5
2023-01-31T10:52:35.208Z,5
2023-01-31T11:07:46.579Z,5
2023-01-31T11:22:58.261Z,5
2023-01-31T11:38:10.834Z,6
2023-01-31T11:53:25.436Z,5
2023-01-31T12:08:38.163Z,6
2023-01-31T12:23:47.484Z,5
2023-01-31T12:38:54.733Z,5
2023-01-31T12:54:03.534Z,5
2023-01-31T13:09:14.816Z,5
2023-01-31T13:24:25.744Z,5
2023-01-31T13:39:39.715Z,5
2023-01-31T13:54:49.558Z,5
2023-01-31T14:10:01.293Z,6
2023-01-31T14:25:13.212Z,5
2023-01-31T14:40:22.354Z,5
2023-01-31T14:55:29.809Z,5
2023-01-31T15:10:42.233Z,6
2023-01-31T15:25:53.365Z,6
2023-01-31T15:40:59.926Z,5
2023-01-31T15:56:07.466Z,5
2023-01-31T16:11:20.604Z,5
2023-01-31T16:26:33.670Z,5
2023-01-31T16:41:47.170Z,5
2023-01-31T16:56:54.349Z,5
2023-01-31T17:12:07.764Z,5
2023-01-31T17:27:15.319Z,6
2023-01-31T17:42:27.807Z,5
2023-01-31T17:57:39.473Z,5
2023-01-31T18:12:48.004Z,5
2023-01-31T18:27:56.690Z,6
2023-01-31T18:43:08.328Z,5
2023-01-31T18:58:16.487Z,6
2023-01-31T19:13:29.119Z,5
2023-01-31T19:28:37.782Z,5
2023-01-31T19:43:46.526Z,5
2023-01-31T19:58:52.940Z,5
2023-01-31T20:14:04.780Z,6
2023-01-31T20:29:13.008Z,5
2023-01-31T20:44:24.190Z,6
2023-01-31T20:59:30.369Z,5
2023-01-31T21:14:43.739Z,5
2023-01-31T21:29:55.127Z,5
2023-01-31T21:45:05.040Z,5
2023-01-31T22:00:16.869Z,6
2023-01-31T22:15:26.406Z,5
2023-01-31T22:30:38.940Z,5
2023-01-31T22:45:49.225Z,5
2023-01-31T23:01:02.336Z,6
2023-01-31T23:17:18.221Z,6
2023-01-31T23:32:29.841Z,5
2023-01-31T23:47:39.246Z,5
